Saline, MI

2:15 AM EDT on August 31, 2014 (GMT -0400)
Ringel Farms | Change Station
CLOSE
Current Station
Personal Weather Station
Location: Saline, MI
Elevation: 869 ft
Nearby Weather Stations

Elev 869 ft 42.18 °N, 83.85 °W | Updated 13 minutes ago

Overcast
Overcast
69.3 °F
Feels Like 69.3 °F
N
2.0
Wind Variable Wind from West
Gusts 8.0 mph

Today
High -- | Low -- °F
--% Chance of Precip.
Yesterday
High -- | Low -- °F
Precip. -- in
6:59 AM 8:10 PM
Waxing Crescent, 28% visible
Pressure 29.95 in
Visibility 10.0 miles
Clouds Scattered Clouds 2000 ft
Mostly Cloudy 11000 ft
Dew Point 67 °F
Humidity 91%
Rainfall 0.00 in
Snow Depth Not available.
UV 0 out of 12
Pollen 9.50 out of 12
Ozone Good
PM2.5 Moderate
Flu Activity Not available.
SPECI KYIP 310609Z AUTO 27011G20KT 10SM SCT020 BKN110 24/18 A2995 RMK AO2 RAB0554E06 P0000 T02440183 TSNO $

More Conditions Fewer Conditions

Pressure 29.95 in
Visibility 10.0 miles
Clouds Scattered Clouds 2000 ft
Mostly Cloudy 11000 ft
Dew Point 67 °F
Humidity 91%
Rainfall 0.00 in
Snow Depth Not available.
UV 0 out of 12
Pollen 9.50 out of 12
Ozone Good
PM2.5 Moderate
Flu Activity Not available.
SPECI KYIP 310609Z AUTO 27011G20KT 10SM SCT020 BKN110 24/18 A2995 RMK AO2 RAB0554E06 P0000 T02440183 TSNO $

More Conditions Fewer Conditions

10-Day Weather Forecast

Almanac

Astronomy

Aug. 31, 2014 Rise Set
Actual Time 6:59 AM EDT 8:10 PM EDT
Civil Twilight 6:30 AM EDT 8:39 PM EDT
Nautical Twilight 5:56 AM EDT 9:14 PM EDT
Astronomical Twilight 5:19 AM EDT 9:50 PM EDT
Moon 12:51 PM EDT 11:18 PM EDT
Length of Visible Light 14h 08m
Length of Day
13h 11m
Tomorrow will be 2m 44s shorter.
Waxing Crescent, 28% of the Moon is Illuminated
Today
Waxing Crescent
Sep 2
First Quarter
Sep 8
Full
Sep 15
Last Quarter
Sep 24
New

Today's Extremes

State Highs State Lows

Community

WunderPhotos

Upload Photos

1,748,801 photos uploaded!

Nearby

Air Quality

  Air Quality AQ Index Pollutant
Yesterday Moderate
PM2.5
Yesterday Good
OZONE
Current Moderate
PM2.5
Current Good
OZONE
Sunday Good
OZONE
Sunday Good
PM2.5
Monday Good
OZONE
Monday Good
PM2.5
Tuesday Good
OZONE
Tuesday Good
PM2.5

Snow Depth

Station Depth Elevation
No new snow has been reported.

Earthquake Activity

City Distance Mag. Time & Date
No recent earthquake activity has been reported nearby.
Minimum magnitude displayed is 2.5.

Coastal Water Temperatures

Place Temperature
Marblehead, OH 73.9 °F

Nearby Weather Stations